Time;durP1;ratioP1;P1;durP2;ratioP2;P2;SDS_P1;SDS_P2;PMS_P1;PMS_P2;Temp;Humidity;BMP_temperature;BMP_pressure;BME280_temperature;BME280_humidity;BME280_pressure;Samples;Min_cycle;Max_cycle;Signal;HPM_P1;HPM_P2
2022/11/27 07:02:46;;;;;;;;;2.75;2.75;;;;;;;;5067796;28;13465;-70
2022/11/27 07:05:11;;;;;;;;;2.00;2.00;;;;;;;;5047816;28;11511;-70
2022/11/27 07:07:37;;;;;;;;;2.25;2.00;;;;;;;;5047410;28;8906;-69
2022/11/27 07:10:02;;;;;;;;;2.00;2.00;;;;;;;;5046558;28;8823;-68
2022/11/27 07:12:27;;;;;;;;;6.00;3.00;;;;;;;;5047329;28;8910;-69
2022/11/27 07:14:52;;;;;;;;;2.00;2.00;;;;;;;;5048209;28;8788;-70
2022/11/27 07:17:18;;;;;;;;;5.50;4.00;;;;;;;;5047707;28;9542;-70
2022/11/27 07:19:43;;;;;;;;;4.50;3.00;;;;;;;;5047563;28;8796;-70
2022/11/27 07:22:08;;;;;;;;;3.75;3.00;;;;;;;;5047431;28;8842;-70
2022/11/27 07:24:34;;;;;;;;;3.00;3.00;;;;;;;;5046235;28;8799;-68
2022/11/27 07:26:59;;;;;;;;;3.25;3.25;;;;;;;;5047496;28;8956;-67
2022/11/27 07:29:25;;;;;;;;;2.67;2.67;;;;;;;;5047452;28;8796;-66
2022/11/27 07:31:50;;;;;;;;;4.00;3.00;;;;;;;;5047064;28;8823;-68
2022/11/27 07:34:15;;;;;;;;;4.33;4.00;;;;;;;;5047260;28;8832;-71
2022/11/27 07:36:41;;;;;;;;;2.00;2.00;;;;;;;;5046876;28;8827;-68
2022/11/27 07:39:06;;;;;;;;;10.33;7.00;;;;;;;;5048919;28;8817;-70
2022/11/27 07:41:31;;;;;;;;;7.00;3.50;;;;;;;;5048636;28;8847;-70
2022/11/27 07:43:57;;;;;;;;;9.00;7.50;;;;;;;;5056913;28;8832;-70
2022/11/27 07:46:23;;;;;;;;;2.50;2.50;;;;;;;;5060354;28;8790;-70
2022/11/27 07:48:49;;;;;;;;;4.25;3.75;;;;;;;;5049749;28;8820;-69
2022/11/27 07:51:16;;;;;;;;;3.00;3.00;;;;;;;;5048260;28;10087;-67
2022/11/27 07:53:42;;;;;;;;;6.00;4.00;;;;;;;;5058752;28;10496;-67
2022/11/27 07:56:11;;;;;;;;;3.25;3.00;;;;;;;;5046273;28;10634;-67
2022/11/27 07:58:37;;;;;;;;;6.00;3.00;;;;;;;;5042812;28;8847;-68
2022/11/27 08:01:09;;;;;;;;;4.75;4.75;;;;;;;;5045179;28;10978;-66
2022/11/27 08:03:35;;;;;;;;;3.00;3.00;;;;;;;;5042699;28;8938;-67
2022/11/27 08:06:00;;;;;;;;;4.75;4.75;;;;;;;;5045011;28;11532;-66
2022/11/27 08:08:25;;;;;;;;;3.00;3.00;;;;;;;;5044944;28;8844;-66
2022/11/27 08:10:51;;;;;;;;;3.00;3.00;;;;;;;;5044932;28;8859;-67
2022/11/27 08:13:16;;;;;;;;;3.00;3.00;;;;;;;;5031578;28;9605;-68
2022/11/27 08:15:41;;;;;;;;;7.00;5.25;;;;;;;;5031006;28;8816;-67
2022/11/27 08:18:07;;;;;;;;;6.25;5.00;;;;;;;;5031622;28;8800;-71
2022/11/27 08:20:32;;;;;;;;;5.00;2.00;;;;;;;;5030313;28;8839;-69
2022/11/27 10:49:10;;;;;;;;;3.00;3.00;;;;;;;;5104957;27;13417;-72
2022/11/27 10:51:35;;;;;;;;;1.25;1.25;;;;;;;;5108246;28;11450;-72
2022/11/27 10:54:02;;;;;;;;;1.00;0.00;;;;;;;;5106856;28;8848;-72
2022/11/27 10:56:27;;;;;;;;;1.00;1.00;;;;;;;;5108039;28;11396;-68
2022/11/27 10:58:53;;;;;;;;;2.00;1.00;;;;;;;;5107878;28;9737;-73
2022/11/27 11:01:19;;;;;;;;;1.33;1.33;;;;;;;;5108099;28;8786;-73
2022/11/27 11:03:44;;;;;;;;;2.50;2.50;;;;;;;;5106975;28;8808;-73
2022/11/27 11:06:36;;;;;;;;;1.00;1.00;;;;;;;;5108009;28;8816;-74
2022/11/27 11:09:04;;;;;;;;;1.00;1.00;;;;;;;;5126099;27;8821;-74
2022/11/27 11:11:29;;;;;;;;;17.00;16.75;;;;;;;;5127204;27;8805;-73
2022/11/27 11:13:54;;;;;;;;;40.67;33.00;;;;;;;;5125575;27;8786;-72
2022/11/27 11:16:20;;;;;;;;;18.33;15.33;;;;;;;;5128564;27;8813;-72
2022/11/27 11:18:48;;;;;;;;;18.20;17.40;;;;;;;;5110043;27;8796;-72
2022/11/27 11:21:33;;;;;;;;;21.80;21.20;;;;;;;;5107824;28;8988;-73
2022/11/27 11:24:00;;;;;;;;;7.60;7.60;;;;;;;;5106608;28;8784;-73
2022/11/27 11:26:45;;;;;;;;;7.60;6.60;;;;;;;;5107830;28;8799;-73
2022/11/27 11:29:25;;;;;;;;;4.00;3.00;;;;;;;;5107855;28;8790;-72
2022/11/27 11:31:53;;;;;;;;;11.25;10.25;;;;;;;;5107525;28;8797;-72
2022/11/27 11:34:18;;;;;;;;;8.75;6.25;;;;;;;;5106144;28;8786;-72
2022/11/27 11:36:57;;;;;;;;;7.00;5.33;;;;;;;;5107359;28;8780;-72
2022/11/27 11:39:24;;;;;;;;;5.00;5.00;;;;;;;;5087400;28;8817;-72
2022/11/27 11:41:50;;;;;;;;;2.50;1.50;;;;;;;;5087130;28;8802;-72
2022/11/27 11:44:21;;;;;;;;;7.00;6.33;;;;;;;;5099712;28;8818;-71
2022/11/27 11:46:50;;;;;;;;;6.75;6.75;;;;;;;;5107097;28;8784;-73
2022/11/27 11:49:34;;;;;;;;;6.25;5.00;;;;;;;;5107103;28;8777;-72
2022/11/27 11:52:06;;;;;;;;;4.00;4.00;;;;;;;;5107113;28;8820;-71
2022/11/27 11:54:34;;;;;;;;;4.00;4.00;;;;;;;;5106014;28;9189;-71
2022/11/27 11:57:01;;;;;;;;;26.50;26.00;;;;;;;;5106918;27;9194;-72
2022/11/27 12:00:02;;;;;;;;;55.25;44.25;;;;;;;;5099224;28;11437;-71
2022/11/27 12:02:46;;;;;;;;;18.00;17.00;;;;;;;;5050685;28;11549;-71
2022/11/27 12:05:14;;;;;;;;;12.25;10.25;;;;;;;;5050278;28;10872;-71
2022/11/27 12:07:48;;;;;;;;;7.50;7.25;;;;;;;;5050275;28;10376;-69
2022/11/27 12:10:21;;;;;;;;;4.75;4.75;;;;;;;;5050590;28;10260;-71
2022/11/27 12:12:54;;;;;;;;;17.50;13.00;;;;;;;;5049365;28;10323;-71
2022/11/27 12:15:32;;;;;;;;;5.00;5.00;;;;;;;;5050241;28;10944;-70
2022/11/27 12:18:12;;;;;;;;;3.50;2.00;;;;;;;;5050175;28;10843;-70
2022/11/27 12:20:56;;;;;;;;;1.00;1.00;;;;;;;;5050422;28;10585;-70
2022/11/27 12:23:40;;;;;;;;;1.00;1.00;;;;;;;;5048756;28;10604;-74
2022/11/27 12:26:11;;;;;;;;;1.00;1.00;;;;;;;;5050239;28;10336;-72
2022/11/27 12:28:48;;;;;;;;;1.00;1.00;;;;;;;;5049709;28;11486;-72
2022/11/27 12:31:16;;;;;;;;;0.00;0.00;;;;;;;;5048517;28;10539;-71
2022/11/27 12:33:41;;;;;;;;;1.00;1.00;;;;;;;;5047205;28;10384;-72
2022/11/27 12:36:30;;;;;;;;;1.00;0.00;;;;;;;;5063900;28;10486;-73
2022/11/27 12:39:14;;;;;;;;;1.00;1.00;;;;;;;;5089900;28;8908;-72
2022/11/27 12:41:42;;;;;;;;;0.25;0.25;;;;;;;;5090431;28;10801;-72
2022/11/27 12:44:16;;;;;;;;;1.00;1.00;;;;;;;;5087676;28;10601;-72
2022/11/27 12:46:55;;;;;;;;;1.00;1.00;;;;;;;;5090740;28;10845;-72
2022/11/27 12:49:24;;;;;;;;;1.75;1.25;;;;;;;;5090537;28;10762;-79
2022/11/27 12:51:53;;;;;;;;;1.00;0.25;;;;;;;;5090887;28;10806;-74
2022/11/27 12:54:26;;;;;;;;;0.00;0.00;;;;;;;;5089658;28;10733;-72
2022/11/27 12:56:55;;;;;;;;;0.75;0.75;;;;;;;;5089027;28;10873;-72
2022/11/27 12:59:24;;;;;;;;;0.25;0.25;;;;;;;;5090267;28;10824;-72
2022/11/27 13:01:59;;;;;;;;;0.00;0.00;;;;;;;;5091975;28;10814;-72
2022/11/27 13:04:36;;;;;;;;;3.00;0.00;;;;;;;;5090860;28;10851;-72
2022/11/27 13:07:05;;;;;;;;;3.25;3.00;;;;;;;;5090514;28;10857;-74
2022/11/27 13:09:53;;;;;;;;;1.75;1.50;;;;;;;;5091747;28;11041;-72
2022/11/27 13:12:30;;;;;;;;;0.00;0.00;;;;;;;;5091221;28;10994;-73
2022/11/27 13:15:03;;;;;;;;;1.00;1.00;;;;;;;;5090919;28;10819;-73
2022/11/27 13:17:33;;;;;;;;;0.00;0.00;;;;;;;;5090293;28;10957;-73
2022/11/27 13:19:59;;;;;;;;;0.75;0.75;;;;;;;;5090514;28;10992;-73
2022/11/27 13:22:28;;;;;;;;;0.25;0.25;;;;;;;;5091652;28;11023;-73
2022/11/27 13:24:55;;;;;;;;;0.75;0.75;;;;;;;;5090364;28;11138;-73
2022/11/27 13:27:24;;;;;;;;;1.00;1.00;;;;;;;;5091385;28;11113;-72
2022/11/27 13:30:08;;;;;;;;;1.50;0.50;;;;;;;;5088236;28;11059;-71
2022/11/27 13:32:45;;;;;;;;;0.00;0.00;;;;;;;;5088664;28;11045;-71
2022/11/27 13:35:19;;;;;;;;;1.00;1.00;;;;;;;;5090561;28;11754;-71
2022/11/27 13:37:46;;;;;;;;;1.75;0.50;;;;;;;;5089952;28;11158;-71
2022/11/27 13:40:11;;;;;;;;;0.00;0.00;;;;;;;;5090997;28;11063;-71
2022/11/27 13:42:42;;;;;;;;;0.00;0.00;;;;;;;;5089299;28;11373;-72
2022/11/27 13:45:11;;;;;;;;;2.00;0.00;;;;;;;;5111012;28;8801;-71
2022/11/27 13:47:41;;;;;;;;;1.00;1.00;;;;;;;;5107742;28;11401;-72
2022/11/27 13:50:11;;;;;;;;;0.50;0.50;;;;;;;;5091148;28;11277;-73
2022/11/27 13:52:37;;;;;;;;;2.00;1.00;;;;;;;;5090144;28;11383;-73
2022/11/27 13:55:21;;;;;;;;;3.75;1.00;;;;;;;;5090640;28;11408;-81
2022/11/27 13:57:54;;;;;;;;;1.25;1.00;;;;;;;;5089799;28;8811;-77
2022/11/27 14:00:30;;;;;;;;;0.75;0.75;;;;;;;;5091123;28;11372;-76
2022/11/27 14:02:55;;;;;;;;;1.00;1.00;;;;;;;;5091049;28;11409;-82
2022/11/27 14:05:32;;;;;;;;;1.50;1.00;;;;;;;;5091054;28;11398;-82
2022/11/27 14:07:58;;;;;;;;;33.50;31.75;;;;;;;;5090729;28;8828;-77
2022/11/27 14:10:25;;;;;;;;;21.75;15.75;;;;;;;;5090968;28;11523;-74
2022/11/27 14:13:00;;;;;;;;;12.75;9.25;;;;;;;;5091083;28;8787;-73
2022/11/27 14:15:29;;;;;;;;;32.25;26.50;;;;;;;;5091204;28;11505;-73
2022/11/27 14:18:18;;;;;;;;;50.50;40.75;;;;;;;;5089354;28;11629;-73
2022/11/27 14:20:48;;;;;;;;;35.75;26.75;;;;;;;;5087354;28;11541;-73
2022/11/27 14:23:13;;;;;;;;;5.00;4.00;;;;;;;;5090235;28;11477;-74
2022/11/27 14:25:39;;;;;;;;;12.25;11.75;;;;;;;;5090509;28;11412;-74
2022/11/27 14:28:10;;;;;;;;;46.75;36.50;;;;;;;;5089226;28;8865;-73
2022/11/27 14:30:45;;;;;;;;;7.50;6.25;;;;;;;;5090543;28;8791;-73
2022/11/27 14:33:17;;;;;;;;;6.00;6.00;;;;;;;;5090274;28;11374;-72
2022/11/27 14:35:47;;;;;;;;;3.75;3.00;;;;;;;;5090439;28;11595;-73
2022/11/27 14:38:14;;;;;;;;;10.75;10.25;;;;;;;;5090506;28;11362;-73
2022/11/27 14:40:39;;;;;;;;;6.50;5.25;;;;;;;;5090415;28;11511;-74
2022/11/27 14:43:18;;;;;;;;;12.00;10.25;;;;;;;;5090268;28;11392;-73
2022/11/27 14:45:48;;;;;;;;;5.75;5.00;;;;;;;;5089260;28;8835;-73
2022/11/27 14:48:36;;;;;;;;;23.50;16.75;;;;;;;;5089903;28;11405;-73
2022/11/27 14:51:02;;;;;;;;;12.25;8.50;;;;;;;;5087200;28;11523;-73
2022/11/27 14:53:27;;;;;;;;;7.75;4.50;;;;;;;;5084851;28;11513;-74
2022/11/27 14:55:55;;;;;;;;;7.75;6.00;;;;;;;;5070164;28;8903;-75
2022/11/27 14:58:24;;;;;;;;;2.00;2.00;;;;;;;;5070318;28;8798;-75
2022/11/27 15:01:00;;;;;;;;;2.00;1.50;;;;;;;;5070040;28;11378;-74
2022/11/27 15:03:26;;;;;;;;;1.00;1.00;;;;;;;;5069846;28;11404;-75
2022/11/27 15:05:53;;;;;;;;;2.00;1.00;;;;;;;;5084535;28;12108;-75
2022/11/27 15:08:19;;;;;;;;;1.00;1.00;;;;;;;;5089983;28;8824;-75
2022/11/27 15:10:44;;;;;;;;;2.00;1.00;;;;;;;;5090013;28;11499;-76
2022/11/27 15:13:42;;;;;;;;;2.00;2.00;;;;;;;;5090199;28;8803;-76
2022/11/27 22:12:20;;;;;;;;;24.00;17.50;;;;;;;;5077185;27;1447142;-72
2022/11/27 22:14:47;;;;;;;;;18.00;15.00;;;;;;;;5120933;23;14076;-71
2022/11/27 22:17:13;;;;;;;;;17.00;12.00;;;;;;;;5042480;28;13552;-71
2022/11/27 22:19:41;;;;;;;;;10.25;10.25;;;;;;;;5047149;28;11554;-71
2022/11/27 22:22:06;;;;;;;;;13.00;10.00;;;;;;;;5047145;28;8820;-72
2022/11/27 22:24:31;;;;;;;;;12.00;10.75;;;;;;;;5047004;28;11544;-72
2022/11/27 22:26:57;;;;;;;;;16.50;12.00;;;;;;;;5047177;28;9503;-72
2022/11/27 22:29:22;;;;;;;;;12.50;12.50;;;;;;;;5047300;28;8788;-72
2022/11/27 22:31:47;;;;;;;;;13.00;11.00;;;;;;;;5046970;28;9526;-71
2022/11/27 22:34:13;;;;;;;;;13.25;11.00;;;;;;;;5046929;28;8881;-72
2022/11/27 22:36:39;;;;;;;;;13.25;11.25;;;;;;;;5047136;28;8869;-72
2022/11/27 22:39:06;;;;;;;;;16.50;11.50;;;;;;;;5046328;28;12254;-71
2022/11/27 22:41:32;;;;;;;;;20.20;18.40;;;;;;;;5043072;28;14399;-71
2022/11/27 22:43:59;;;;;;;;;15.00;15.00;;;;;;;;5045248;28;8800;-77
2022/11/27 22:46:32;;;;;;;;;11.00;11.00;;;;;;;;5047053;28;11626;-74
2022/11/27 22:48:58;;;;;;;;;14.75;10.75;;;;;;;;4965479;28;11713;-70
2022/11/27 22:51:24;;;;;;;;;14.00;10.00;;;;;;;;4989711;28;11585;-71
2022/11/27 22:53:49;;;;;;;;;13.75;10.75;;;;;;;;4985816;28;11540;-71
2022/11/27 22:56:14;;;;;;;;;15.00;13.50;;;;;;;;5002512;28;11695;-71
2022/11/27 22:58:40;;;;;;;;;13.00;13.00;;;;;;;;4987249;28;8807;-70
2022/11/27 23:01:06;;;;;;;;;14.00;13.00;;;;;;;;4987500;28;8812;-71
2022/11/27 23:03:32;;;;;;;;;22.00;20.20;;;;;;;;4983633;28;13776;-70
2022/11/27 23:05:57;;;;;;;;;14.75;10.75;;;;;;;;4983023;28;9521;-70
2022/11/27 23:08:23;;;;;;;;;19.00;15.00;;;;;;;;4964746;28;13630;-71
2022/11/27 23:10:48;;;;;;;;;26.00;23.33;;;;;;;;4964255;28;13668;-71
2022/11/27 23:13:14;;;;;;;;;17.75;12.00;;;;;;;;4967954;28;8899;-72
2022/11/27 23:15:40;;;;;;;;;22.00;22.00;;;;;;;;5004090;23;13717;-73
2022/11/27 23:18:05;;;;;;;;;18.67;15.00;;;;;;;;5002437;28;13637;-73
2022/11/27 23:20:31;;;;;;;;;29.50;23.25;;;;;;;;5002182;28;13651;-73
2022/11/27 23:22:56;;;;;;;;;15.00;15.00;;;;;;;;4993886;28;13768;-73
2022/11/27 23:25:21;;;;;;;;;12.75;9.00;;;;;;;;4991389;28;8832;-73
2022/11/27 23:27:46;;;;;;;;;14.00;13.00;;;;;;;;4993096;28;8817;-73
2022/11/27 23:30:13;;;;;;;;;15.25;13.00;;;;;;;;4992747;28;9686;-74
2022/11/27 23:32:38;;;;;;;;;18.00;15.50;;;;;;;;4992799;28;8815;-73
2022/11/27 23:35:04;;;;;;;;;12.00;11.00;;;;;;;;4992675;28;11680;-74
2022/11/27 23:37:29;;;;;;;;;13.00;10.75;;;;;;;;4991136;28;8806;-74
2022/11/27 23:39:54;;;;;;;;;19.33;18.33;;;;;;;;4988911;28;13659;-72
2022/11/27 23:42:20;;;;;;;;;14.33;10.00;;;;;;;;4992697;28;11634;-74
2022/11/27 23:44:45;;;;;;;;;14.67;13.00;;;;;;;;4992678;28;8805;-72
2022/11/27 23:47:10;;;;;;;;;21.00;17.00;;;;;;;;4987650;28;14414;-73
2022/11/27 23:49:35;;;;;;;;;14.00;14.00;;;;;;;;4992624;28;8805;-73
2022/11/27 23:52:01;;;;;;;;;22.00;21.00;;;;;;;;4988779;28;13873;-73
2022/11/27 23:54:26;;;;;;;;;16.67;16.00;;;;;;;;4988456;28;13678;-73
2022/11/27 23:56:51;;;;;;;;;13.33;11.33;;;;;;;;4992411;28;8782;-73
2022/11/27 23:59:17;;;;;;;;;15.33;13.33;;;;;;;;4992518;28;8797;-72
